Time;durP1;ratioP1;P1;durP2;ratioP2;P2;SDS_P1;SDS_P2;PMS_P1;PMS_P2;Temp;Humidity;BMP_temperature;BMP_pressure;BME280_temperature;BME280_humidity;BME280_pressure;Samples;Min_cycle;Max_cycle;Signal;HPM_P1;HPM_P2
2020/12/11 00:01:37;;;;;;;2.08;1.00;;;;;;;6.04;75.26;92934.34;5009273;28;20034;-64
2020/12/11 00:04:02;;;;;;;2.47;0.90;;;;;;;6.08;75.41;92940.59;5009444;28;20550;-64
2020/12/11 00:06:28;;;;;;;3.28;1.17;;;;;;;6.12;75.41;92940.75;5010767;28;20073;-64
2020/12/11 00:08:54;;;;;;;2.30;1.02;;;;;;;6.15;75.45;92948.09;5010594;28;20029;-64
2020/12/11 00:11:26;;;;;;;3.63;1.35;;;;;;;6.14;75.31;92941.22;5010863;28;20509;-64
2020/12/11 00:13:52;;;;;;;4.15;0.88;;;;;;;6.14;75.30;92939.34;5010569;28;20405;-64
2020/12/11 00:16:17;;;;;;;3.00;1.15;;;;;;;6.20;75.04;92947.94;5010668;28;20029;-65
2020/12/11 00:18:43;;;;;;;2.22;1.08;;;;;;;6.16;74.90;92937.19;5009194;28;20057;-65
2020/12/11 00:21:08;;;;;;;6.18;1.30;;;;;;;6.15;74.70;92946.22;5009261;28;20030;-64
2020/12/11 00:23:34;;;;;;;2.45;1.10;;;;;;;6.16;74.87;92931.13;5010517;28;20041;-65
2020/12/11 00:25:59;;;;;;;2.55;1.33;;;;;;;6.11;74.59;92937.34;5010384;28;20026;-64
2020/12/11 00:28:29;;;;;;;2.20;1.33;;;;;;;6.09;74.94;92944.03;5010585;28;20064;-65
2020/12/11 00:30:56;;;;;;;1.88;0.85;;;;;;;6.13;74.87;92947.63;5010385;28;20052;-64
2020/12/11 00:33:25;;;;;;;1.98;0.90;;;;;;;6.10;74.74;92943.69;5010383;28;20080;-64
2020/12/11 00:35:51;;;;;;;3.50;0.80;;;;;;;6.03;75.17;92940.75;5010187;28;20044;-64
2020/12/11 00:38:18;;;;;;;2.25;0.88;;;;;;;6.06;75.32;92950.69;5008841;28;20571;-64
2020/12/11 00:40:43;;;;;;;3.97;1.20;;;;;;;6.05;75.28;92951.78;5010139;28;20088;-64
2020/12/11 00:43:09;;;;;;;13.48;6.35;;;;;;;6.11;75.34;92947.16;5010144;28;20050;-64
2020/12/11 00:45:35;;;;;;;10.60;3.55;;;;;;;6.25;74.74;92954.94;5009256;28;20448;-64
2020/12/11 00:48:00;;;;;;;11.88;7.53;;;;;;;6.31;74.78;92943.94;5008939;28;20030;-64
2020/12/11 00:50:26;;;;;;;10.02;5.18;;;;;;;6.39;75.30;92947.66;5010290;28;20309;-65
2020/12/11 00:52:51;;;;;;;5.47;3.78;;;;;;;6.49;75.46;92944.72;5010000;28;20107;-66
2020/12/11 00:55:17;;;;;;;9.13;3.63;;;;;;;6.57;75.58;92956.41;5012899;28;20034;-66
2020/12/11 00:57:46;;;;;;;4.90;2.65;;;;;;;6.66;75.25;92949.28;5013241;28;20087;-66
2020/12/11 01:00:14;;;;;;;6.30;2.80;;;;;;;6.70;75.46;92952.09;5014336;28;20022;-66
2020/12/11 01:02:39;;;;;;;3.83;2.10;;;;;;;6.74;74.71;92953.81;5013020;28;20029;-66
2020/12/11 01:05:05;;;;;;;4.50;2.40;;;;;;;6.80;74.47;92957.09;5014154;28;20026;-66
2020/12/11 01:07:30;;;;;;;6.40;3.25;;;;;;;6.88;74.26;92955.50;5014042;28;20021;-66
2020/12/11 01:09:56;;;;;;;5.47;2.97;;;;;;;6.93;74.39;92958.00;5012686;28;20026;-66
2020/12/11 01:12:21;;;;;;;4.80;2.83;;;;;;;6.99;74.09;92962.84;5013787;28;20179;-65
2020/12/11 01:14:47;;;;;;;5.68;2.72;;;;;;;7.05;73.94;92962.69;5014214;28;20540;-65
2020/12/11 01:17:12;;;;;;;6.47;3.38;;;;;;;7.09;73.98;92966.28;5013758;28;20123;-65
2020/12/11 01:19:38;;;;;;;9.65;3.15;;;;;;;7.11;73.78;92954.28;5014109;28;20068;-66
2020/12/11 01:22:04;;;;;;;8.35;3.13;;;;;;;7.14;73.58;92958.94;5013729;28;20026;-65
2020/12/11 01:24:33;;;;;;;8.13;4.22;;;;;;;7.17;73.63;92955.66;5013882;28;20025;-66
2020/12/11 01:26:59;;;;;;;8.55;4.15;;;;;;;7.19;73.79;92950.06;5013598;28;20026;-65
2020/12/11 01:29:24;;;;;;;7.00;3.53;;;;;;;7.22;73.58;92954.72;5013983;28;20033;-66
2020/12/11 01:31:55;;;;;;;5.38;3.35;;;;;;;7.28;73.48;92960.66;5013675;28;20104;-66
2020/12/11 01:34:20;;;;;;;6.72;3.67;;;;;;;7.29;73.28;92955.03;5012366;28;20040;-65
2020/12/11 01:36:46;;;;;;;8.27;3.42;;;;;;;7.30;73.34;92953.16;5012229;28;20038;-65
2020/12/11 01:39:11;;;;;;;6.18;3.22;;;;;;;7.31;73.16;92949.44;5013608;28;20026;-66
2020/12/11 01:41:36;;;;;;;7.93;3.40;;;;;;;7.31;73.20;92946.78;5013229;28;20412;-65
2020/12/11 01:44:09;;;;;;;6.22;3.13;;;;;;;7.33;73.35;92945.38;5012253;28;20026;-66
2020/12/11 01:46:40;;;;;;;6.95;3.40;;;;;;;7.36;73.14;92939.41;5013448;28;20054;-66
2020/12/11 01:49:11;;;;;;;6.88;3.67;;;;;;;7.32;73.38;92938.50;5013264;28;20107;-66
2020/12/11 01:51:37;;;;;;;5.82;3.70;;;;;;;7.33;73.46;92937.41;5013274;28;20029;-66
2020/12/11 01:54:03;;;;;;;8.05;3.53;;;;;;;7.31;73.22;92946.78;5011997;28;20030;-66
2020/12/11 01:56:32;;;;;;;7.30;3.63;;;;;;;7.29;72.74;92941.78;5013232;28;20023;-66
2020/12/11 01:59:03;;;;;;;5.88;3.47;;;;;;;7.27;72.98;92946.63;5013219;28;20021;-66
2020/12/11 02:01:34;;;;;;;9.85;3.35;;;;;;;7.30;73.48;92955.81;5013242;28;20108;-66
2020/12/11 02:04:00;;;;;;;5.75;3.58;;;;;;;7.30;73.42;92942.56;5013015;28;20053;-66
2020/12/11 02:06:25;;;;;;;8.23;3.97;;;;;;;7.29;73.28;92944.44;5012235;28;20121;-66
2020/12/11 02:08:58;;;;;;;8.35;4.20;;;;;;;7.33;73.54;92942.72;5012808;28;20049;-66
2020/12/11 02:11:24;;;;;;;8.68;4.20;;;;;;;7.36;73.12;92941.28;5012947;28;20112;-66
2020/12/11 02:13:50;;;;;;;9.15;3.60;;;;;;;7.35;73.02;92945.81;5011656;28;20110;-66
2020/12/11 02:16:24;;;;;;;7.68;3.63;;;;;;;7.37;72.72;92945.53;5011583;28;20057;-67
2020/12/11 02:18:50;;;;;;;11.68;4.65;;;;;;;7.37;72.45;92946.28;5012884;28;20057;-67
2020/12/11 02:21:16;;;;;;;8.27;4.10;;;;;;;7.31;72.61;92944.91;5012493;28;20022;-67
2020/12/11 02:23:43;;;;;;;10.45;4.85;;;;;;;7.24;72.86;92947.22;5012970;28;20076;-67
2020/12/11 02:26:09;;;;;;;10.63;5.18;;;;;;;7.20;73.29;92941.78;5011390;28;20025;-67
2020/12/11 02:28:35;;;;;;;11.25;5.15;;;;;;;7.20;73.47;92946.31;5011359;28;20026;-66
2020/12/11 02:31:02;;;;;;;9.98;5.57;;;;;;;7.20;73.21;92946.31;5011164;28;20497;-66
2020/12/11 02:33:28;;;;;;;11.95;5.63;;;;;;;7.18;73.54;92937.88;5012578;28;20080;-66
2020/12/11 02:35:54;;;;;;;11.88;5.82;;;;;;;7.15;73.65;92935.88;5012363;28;20022;-66
2020/12/11 02:38:20;;;;;;;12.70;7.47;;;;;;;7.13;73.93;92941.47;5012537;28;20030;-66
2020/12/11 02:40:51;;;;;;;11.95;6.43;;;;;;;7.09;74.08;92940.56;5012622;28;20022;-66
2020/12/11 02:43:17;;;;;;;12.95;6.85;;;;;;;7.08;74.25;92948.81;5012310;28;20061;-66
2020/12/11 02:45:45;;;;;;;16.40;8.90;;;;;;;7.03;74.61;92939.94;5012400;28;20037;-67
2020/12/11 02:48:11;;;;;;;14.60;7.50;;;;;;;7.00;74.62;92937.91;5011052;28;20034;-66
2020/12/11 02:50:37;;;;;;;20.50;9.02;;;;;;;6.97;74.87;92933.22;5012183;28;20040;-66
2020/12/11 02:53:02;;;;;;;23.95;9.80;;;;;;;6.98;75.03;92936.66;5010914;28;20466;-66
2020/12/11 02:55:28;;;;;;;44.33;11.40;;;;;;;6.98;74.86;92936.66;5012218;28;20084;-65
2020/12/11 02:57:53;;;;;;;44.50;9.93;;;;;;;6.95;75.03;92938.06;5012104;28;20038;-65
2020/12/11 03:00:19;;;;;;;34.55;10.15;;;;;;;6.99;75.04;92952.25;5010874;28;20018;-65
2020/12/11 03:02:44;;;;;;;57.70;11.68;;;;;;;7.03;74.92;92955.81;5011881;28;20033;-65
2020/12/11 03:05:09;;;;;;;60.00;13.25;;;;;;;7.03;75.16;92950.53;5011983;28;20036;-66
2020/12/11 03:07:35;;;;;;;34.33;12.88;;;;;;;7.00;75.27;92956.47;5012054;28;20033;-65
2020/12/11 03:10:00;;;;;;;29.70;14.10;;;;;;;6.99;75.37;92960.19;5003964;28;20022;-65
2020/12/11 03:12:26;;;;;;;25.38;13.35;;;;;;;7.03;75.22;92958.47;5010432;28;20022;-65
2020/12/11 03:14:51;;;;;;;25.58;13.45;;;;;;;7.06;74.99;92957.06;5011824;28;20026;-66
2020/12/11 03:17:16;;;;;;;35.83;15.05;;;;;;;7.09;74.74;92955.69;5010681;28;20029;-65
2020/12/11 03:19:42;;;;;;;31.23;14.30;;;;;;;7.06;75.04;92945.69;5010191;28;20048;-65
2020/12/11 03:22:07;;;;;;;42.38;13.70;;;;;;;7.05;75.17;92954.75;5011627;28;20025;-66
2020/12/11 03:24:33;;;;;;;29.27;14.13;;;;;;;7.05;75.10;92949.44;5011569;28;20443;-65
2020/12/11 03:26:58;;;;;;;31.33;13.85;;;;;;;7.08;75.15;92954.09;5011612;28;20115;-65
2020/12/11 03:29:23;;;;;;;31.13;14.95;;;;;;;7.08;75.14;92954.09;5010240;28;20025;-66
2020/12/11 03:31:49;;;;;;;28.42;13.80;;;;;;;7.11;74.96;92961.44;5011962;28;20022;-65
2020/12/11 03:34:14;;;;;;;27.17;13.70;;;;;;;7.11;75.00;92969.41;5011401;28;20026;-65
2020/12/11 03:36:40;;;;;;;28.67;12.80;;;;;;;7.12;74.62;92974.38;5011277;28;20022;-65
2020/12/11 03:39:05;;;;;;;25.15;12.00;;;;;;;7.11;74.81;92975.47;5011279;28;20489;-65
2020/12/11 03:41:31;;;;;;;27.33;13.38;;;;;;;7.14;74.48;92984.66;5009887;28;20132;-64
2020/12/11 03:43:56;;;;;;;27.85;13.40;;;;;;;7.17;74.50;92994.66;5011645;28;20025;-65
2020/12/11 03:46:21;;;;;;;29.80;14.10;;;;;;;7.19;74.64;92992.47;5011296;28;20038;-65
2020/12/11 03:48:48;;;;;;;27.52;12.65;;;;;;;7.15;74.52;92994.19;5009959;28;20068;-65
2020/12/11 03:51:19;;;;;;;29.50;13.15;;;;;;;7.14;74.43;92995.25;5011100;28;20104;-65
2020/12/11 03:53:45;;;;;;;23.30;12.88;;;;;;;7.17;74.69;92986.69;5011187;28;20029;-64
2020/12/11 03:56:15;;;;;;;26.70;14.18;;;;;;;7.21;74.64;92990.28;5009772;28;20386;-65
2020/12/11 03:58:41;;;;;;;30.58;14.23;;;;;;;7.19;74.31;92997.75;5009857;28;20030;-65
2020/12/11 04:01:08;;;;;;;26.60;14.20;;;;;;;7.19;74.30;93003.06;5011076;28;20030;-65
2020/12/11 04:03:34;;;;;;;26.83;14.43;;;;;;;7.17;74.12;93002.59;5009625;28;20026;-65
2020/12/11 04:05:59;;;;;;;26.90;13.55;;;;;;;7.17;74.22;92999.94;5011154;28;20022;-64
2020/12/11 04:08:25;;;;;;;28.88;14.40;;;;;;;7.15;74.17;93013.50;5010893;28;20080;-65
2020/12/11 04:10:50;;;;;;;27.45;13.52;;;;;;;7.09;74.36;93013.97;5010995;28;20104;-65
2020/12/11 04:13:16;;;;;;;24.05;13.18;;;;;;;7.04;74.36;93017.53;5010874;28;20020;-65
2020/12/11 04:15:41;;;;;;;25.58;13.02;;;;;;;7.00;74.48;93006.81;5010769;28;20091;-66
2020/12/11 04:18:06;;;;;;;24.92;13.77;;;;;;;6.93;74.52;93014.41;5009620;28;20113;-65
2020/12/11 04:20:32;;;;;;;19.63;12.20;;;;;;;6.85;74.80;93017.84;5010660;28;20026;-65
2020/12/11 04:22:57;;;;;;;25.33;12.48;;;;;;;6.72;74.99;93013.47;5009331;28;20017;-65
2020/12/11 04:25:23;;;;;;;20.90;12.25;;;;;;;6.51;76.09;93016.66;5010663;28;20030;-65
2020/12/11 04:27:48;;;;;;;22.48;12.85;;;;;;;6.51;76.22;93015.91;5009142;28;20381;-64
2020/12/11 04:30:14;;;;;;;25.13;13.30;;;;;;;6.46;76.51;93024.78;5009326;28;20022;-65
2020/12/11 04:32:39;;;;;;;25.48;14.35;;;;;;;6.46;76.58;93024.78;5010227;28;20037;-65
2020/12/11 04:35:04;;;;;;;23.75;13.63;;;;;;;6.50;76.43;93024.94;5010759;28;20066;-65
2020/12/11 04:37:30;;;;;;;35.03;14.80;;;;;;;6.50;76.39;93032.88;5010488;28;20026;-66
2020/12/11 04:39:55;;;;;;;27.67;13.57;;;;;;;6.47;76.71;93025.53;5010629;28;20109;-65
2020/12/11 04:42:23;;;;;;;26.50;14.35;;;;;;;6.40;76.79;93021.47;5010420;28;20128;-65
2020/12/11 04:44:48;;;;;;;23.75;13.70;;;;;;;6.38;76.82;93023.66;5010415;28;20018;-65
2020/12/11 04:47:14;;;;;;;19.60;12.75;;;;;;;6.39;76.97;93021.78;5010502;28;20029;-65
2020/12/11 04:49:41;;;;;;;25.70;14.13;;;;;;;6.44;76.81;93024.28;5010342;28;20109;-66
2020/12/11 04:52:06;;;;;;;23.20;13.15;;;;;;;6.42;77.13;93024.59;5009191;28;21439;-66
2020/12/11 04:54:37;;;;;;;22.05;12.82;;;;;;;6.49;76.99;93018.84;5010344;28;20029;-66
2020/12/11 04:57:04;;;;;;;23.33;12.77;;;;;;;6.54;76.86;93020.59;5010354;28;20037;-66
2020/12/11 04:59:29;;;;;;;26.90;13.88;;;;;;;6.55;76.83;93014.97;5008912;28;20026;-66
2020/12/11 05:01:58;;;;;;;21.38;13.35;;;;;;;6.61;76.70;93016.41;5008930;28;20073;-65
2020/12/11 05:04:25;;;;;;;21.27;13.20;;;;;;;6.66;76.16;93012.06;5010585;28;20104;-66
2020/12/11 05:06:51;;;;;;;23.85;13.20;;;;;;;6.71;76.33;93025.13;5008923;28;20436;-66
2020/12/11 05:09:19;;;;;;;22.77;13.38;;;;;;;6.76;76.24;93022.34;5010271;28;20113;-66
2020/12/11 05:11:46;;;;;;;20.27;12.90;;;;;;;6.78;76.11;93026.25;5010476;28;20436;-65
2020/12/11 05:14:24;;;;;;;25.60;13.43;;;;;;;6.81;75.91;93030.16;5009937;28;20021;-66
2020/12/11 05:16:58;;;;;;;22.92;13.70;;;;;;;6.86;75.80;93026.56;5010168;28;20518;-66
2020/12/11 05:19:24;;;;;;;22.42;13.45;;;;;;;6.91;75.42;93035.13;5010243;28;20136;-66
2020/12/11 05:21:50;;;;;;;28.58;14.68;;;;;;;6.95;75.29;93033.44;5009971;28;20030;-65
2020/12/11 05:24:15;;;;;;;32.45;17.50;;;;;;;6.96;74.98;93035.00;5008770;28;20022;-64
2020/12/11 05:26:41;;;;;;;29.75;15.43;;;;;;;6.98;75.06;93035.47;5008622;28;20026;-66
2020/12/11 05:29:06;;;;;;;21.80;13.80;;;;;;;7.00;74.83;93035.16;5009625;28;20022;-66
2020/12/11 05:31:32;;;;;;;24.08;15.05;;;;;;;7.02;74.74;93047.00;5008795;28;20010;-66
2020/12/11 05:34:08;;;;;;;28.23;17.13;;;;;;;7.06;74.50;93049.03;5010122;28;20057;-66
2020/12/11 05:36:49;;;;;;;32.45;18.15;;;;;;;7.09;74.28;93059.03;5009981;28;20030;-66
2020/12/11 05:39:30;;;;;;;43.67;26.70;;;;;;;7.11;74.01;93051.53;5008605;28;20022;-66
2020/12/11 05:41:56;;;;;;;39.40;24.10;;;;;;;7.13;73.91;93058.09;5011610;28;20559;-66
2020/12/11 05:44:22;;;;;;;35.05;19.45;;;;;;;7.15;73.68;93058.56;5012136;28;20033;-66
2020/12/11 05:46:48;;;;;;;31.80;20.48;;;;;;;7.15;73.70;93055.13;5013270;28;20032;-66
2020/12/11 05:49:28;;;;;;;32.67;18.05;;;;;;;7.14;73.54;93056.97;5012165;28;20109;-65
2020/12/11 05:52:10;;;;;;;27.08;16.60;;;;;;;7.15;73.40;93068.38;5013860;28;20101;-65
2020/12/11 05:54:40;;;;;;;28.27;16.40;;;;;;;7.15;73.54;93071.03;5013280;28;20068;-65
2020/12/11 05:57:07;;;;;;;22.95;14.77;;;;;;;7.14;73.59;93075.53;5013966;28;20034;-64
2020/12/11 05:59:34;;;;;;;24.55;15.25;;;;;;;7.20;73.10;93078.81;5013233;28;20113;-64
2020/12/11 06:02:00;;;;;;;31.70;15.00;;;;;;;7.23;72.87;93080.88;5013258;28;20040;-64
2020/12/11 06:04:26;;;;;;;24.70;14.05;;;;;;;7.19;72.96;93085.22;5011705;28;20116;-65
2020/12/11 06:06:57;;;;;;;27.67;14.63;;;;;;;7.14;73.07;93086.13;5013279;28;20361;-64
2020/12/11 06:09:43;;;;;;;24.85;15.20;;;;;;;7.16;73.31;93107.03;5011706;28;20084;-65
2020/12/11 06:12:11;;;;;;;23.95;13.57;;;;;;;7.14;73.15;93101.25;5013055;28;20053;-65
2020/12/11 06:14:57;;;;;;;25.90;14.85;;;;;;;7.10;73.33;93095.78;5011503;28;20429;-65
2020/12/11 06:17:25;;;;;;;23.85;14.73;;;;;;;7.14;73.25;93098.59;5012944;28;20029;-64
2020/12/11 06:19:53;;;;;;;26.92;13.93;;;;;;;7.16;73.38;93105.16;5013082;28;20029;-64
2020/12/11 06:22:21;;;;;;;26.52;14.95;;;;;;;7.23;73.18;93094.13;5011740;28;20030;-64
2020/12/11 06:24:47;;;;;;;24.70;14.68;;;;;;;7.26;73.17;93093.47;5012710;28;20115;-65
2020/12/11 06:27:12;;;;;;;24.90;15.05;;;;;;;7.25;72.83;93086.63;5011606;28;20030;-64
2020/12/11 06:29:41;;;;;;;30.98;16.20;;;;;;;7.29;73.37;93102.69;5011390;28;20061;-65
2020/12/11 06:32:07;;;;;;;29.20;15.07;;;;;;;7.32;73.62;93097.53;5012614;28;20087;-64
2020/12/11 06:34:33;;;;;;;23.35;14.68;;;;;;;7.36;73.66;93097.69;5012588;28;20473;-64
2020/12/11 06:36:59;;;;;;;23.88;14.77;;;;;;;7.42;73.55;93097.22;5012509;28;20040;-64
2020/12/11 06:39:53;;;;;;;24.95;14.38;;;;;;;7.48;73.16;93097.88;5012479;28;20033;-64
2020/12/11 06:42:40;;;;;;;24.33;15.05;;;;;;;7.52;73.02;93101.44;5007716;28;20041;-64
2020/12/11 06:45:25;;;;;;;29.20;14.93;;;;;;;7.63;72.87;93093.97;5012454;28;20460;-64
2020/12/11 06:47:59;;;;;;;26.42;15.50;;;;;;;7.67;72.63;93102.06;5011999;28;20116;-65
2020/12/11 06:50:28;;;;;;;30.10;16.08;;;;;;;7.71;72.50;93098.47;5012225;28;20041;-64
2020/12/11 06:52:55;;;;;;;23.20;15.15;;;;;;;7.77;72.05;93097.22;5011609;28;20044;-65
2020/12/11 06:55:21;;;;;;;22.52;14.98;;;;;;;7.81;71.75;93098.16;5010879;28;20510;-65
2020/12/11 06:57:47;;;;;;;27.48;14.88;;;;;;;7.87;71.72;93093.47;5011891;28;20029;-65
2020/12/11 07:00:30;;;;;;;25.13;14.68;;;;;;;7.91;71.92;93101.59;5010822;28;20108;-65
2020/12/11 07:03:15;;;;;;;28.60;17.23;;;;;;;7.94;71.83;93104.41;5011546;28;20066;-65
2020/12/11 07:05:41;;;;;;;33.92;18.55;;;;;;;7.96;71.45;93110.19;5012143;28;20501;-65
2020/12/11 07:08:11;;;;;;;27.27;17.30;;;;;;;8.03;71.17;93102.50;5011501;28;20072;-65
2020/12/11 07:10:36;;;;;;;26.15;15.60;;;;;;;8.03;71.11;93099.84;5012072;28;20037;-65
2020/12/11 07:13:06;;;;;;;28.38;15.88;;;;;;;8.09;71.19;93099.69;5010264;28;20037;-65
2020/12/11 07:15:32;;;;;;;26.52;16.05;;;;;;;8.15;70.78;93109.06;5010724;28;20456;-65
2020/12/11 07:17:57;;;;;;;27.27;16.05;;;;;;;8.18;70.59;93111.88;5011509;28;20088;-66
2020/12/11 07:20:23;;;;;;;30.20;19.10;;;;;;;8.21;70.35;93105.91;5011726;28;20512;-65
2020/12/11 07:22:50;;;;;;;24.42;15.48;;;;;;;8.19;70.84;93110.75;5011665;28;20026;-66
2020/12/11 07:25:16;;;;;;;21.58;13.45;;;;;;;8.18;71.33;93109.22;5011402;28;20148;-65
2020/12/11 07:27:55;;;;;;;25.30;15.45;;;;;;;8.21;71.39;93105.91;5011275;28;20034;-65
2020/12/11 07:30:20;;;;;;;32.88;17.77;;;;;;;8.23;71.13;93114.34;5011486;28;20033;-65
2020/12/11 07:32:47;;;;;;;34.97;17.65;;;;;;;8.24;71.09;93118.56;5011571;28;20441;-65
2020/12/11 07:35:12;;;;;;;21.42;14.50;;;;;;;8.29;70.97;93117.59;5009780;28;20021;-65
2020/12/11 07:37:48;;;;;;;26.05;16.23;;;;;;;8.31;70.75;93114.66;5010140;28;20025;-65
2020/12/11 07:40:14;;;;;;;24.20;13.88;;;;;;;8.30;70.87;93107.75;5009607;28;20045;-66
2020/12/11 07:42:42;;;;;;;22.85;13.73;;;;;;;8.32;70.70;93111.66;5009831;28;20065;-65
2020/12/11 07:45:08;;;;;;;22.95;13.70;;;;;;;8.34;70.62;93119.31;5009903;28;20029;-64
2020/12/11 07:47:34;;;;;;;27.77;12.93;;;;;;;8.34;70.45;93119.31;5011466;28;20014;-65
2020/12/11 07:50:05;;;;;;;18.60;11.60;;;;;;;8.29;70.60;93117.59;5011098;28;20041;-65
2020/12/11 07:52:32;;;;;;;18.92;11.45;;;;;;;8.30;70.48;93113.84;5011052;28;20076;-66
2020/12/11 07:54:57;;;;;;;18.08;11.57;;;;;;;8.33;70.33;93109.78;5011379;28;20490;-65
2020/12/11 07:57:23;;;;;;;22.02;12.02;;;;;;;8.28;70.46;93118.69;5009400;28;20037;-65
2020/12/11 08:00:00;;;;;;;22.05;11.52;;;;;;;8.24;69.98;93115.09;5009582;28;20095;-65
2020/12/11 08:02:26;;;;;;;25.42;12.23;;;;;;;8.19;70.25;93121.38;5010258;28;20034;-71
2020/12/11 08:04:52;;;;;;;22.83;11.57;;;;;;;8.24;70.15;93126.53;5008966;28;20030;-74
2020/12/11 08:07:28;;;;;;;21.73;11.77;;;;;;;8.30;69.90;93121.03;5010352;28;20180;-74
2020/12/11 08:10:05;;;;;;;19.85;12.27;;;;;;;8.36;69.56;93135.69;5010660;28;20048;-74
2020/12/11 08:12:30;;;;;;;19.38;11.65;;;;;;;8.40;69.34;93133.97;5010416;28;20034;-73
2020/12/11 08:14:56;;;;;;;27.88;13.07;;;;;;;8.43;69.16;93136.03;5009458;28;20037;-74
2020/12/11 08:17:22;;;;;;;18.55;12.43;;;;;;;8.46;69.15;93140.69;5009230;28;20033;-74
2020/12/11 08:19:57;;;;;;;21.02;12.80;;;;;;;8.50;69.44;93136.31;5010517;28;20100;-74
2020/12/11 08:22:22;;;;;;;22.65;12.77;;;;;;;8.54;69.10;93131.94;5010533;28;20034;-74
2020/12/11 08:24:48;;;;;;;24.83;15.00;;;;;;;8.59;68.62;93137.09;5009314;28;20503;-73
2020/12/11 08:27:24;;;;;;;27.35;14.73;;;;;;;8.66;68.20;93136.59;5010385;28;20460;-73
2020/12/11 08:30:04;;;;;;;25.50;13.95;;;;;;;8.66;68.40;93135.81;5010219;28;20029;-73
2020/12/11 08:32:30;;;;;;;26.23;14.27;;;;;;;8.68;67.90;93133.63;5010202;28;20033;-73
2020/12/11 08:34:56;;;;;;;27.23;14.20;;;;;;;8.67;68.03;93140.00;5008738;28;20026;-71
2020/12/11 08:37:21;;;;;;;28.23;16.45;;;;;;;8.66;68.41;93127.84;5008814;28;20025;-70
2020/12/11 08:39:47;;;;;;;25.35;15.30;;;;;;;8.66;67.83;93128.63;5008538;28;20509;-70
2020/12/11 08:42:23;;;;;;;23.63;15.55;;;;;;;8.68;67.87;93138.94;5010259;28;20462;-69
2020/12/11 08:50:12;;;;;;;30.00;15.75;;;;;;;8.70;67.40;93128.75;5010174;28;20029;-70
2020/12/11 08:52:38;;;;;;;24.80;14.63;;;;;;;8.68;67.49;93123.00;5008690;28;20022;-70
2020/12/11 08:55:03;;;;;;;28.15;16.42;;;;;;;8.48;67.94;93119.91;5009714;28;20034;-70
2020/12/11 08:57:32;;;;;;;26.52;15.93;;;;;;;8.61;67.49;93118.94;5009887;28;20030;-71
2020/12/11 08:59:57;;;;;;;34.15;20.50;;;;;;;8.72;67.83;93124.69;5009681;28;20034;-71
2020/12/11 09:02:23;;;;;;;35.38;20.48;;;;;;;8.81;68.10;93121.97;5008662;28;20073;-71
2020/12/11 09:04:48;;;;;;;32.65;19.05;;;;;;;8.89;68.09;93115.06;5009822;28;20037;-70
2020/12/11 09:07:14;;;;;;;26.38;17.20;;;;;;;8.98;67.31;93116.59;5009656;28;20104;-70
2020/12/11 09:09:39;;;;;;;38.10;16.52;;;;;;;9.07;66.41;93113.13;5009989;28;20445;-70
2020/12/11 09:12:05;;;;;;;25.35;15.55;;;;;;;9.08;65.73;93109.34;5007967;28;20022;-71
2020/12/11 09:14:30;;;;;;;24.30;15.15;;;;;;;9.02;65.09;93112.19;5010961;28;20412;-70
2020/12/11 09:16:56;;;;;;;29.38;14.45;;;;;;;9.01;64.94;93113.28;5012510;28;20034;-70
2020/12/11 09:19:21;;;;;;;27.00;16.02;;;;;;;9.02;66.00;93120.19;5012264;28;20409;-71
2020/12/11 09:21:47;;;;;;;26.08;15.23;;;;;;;9.10;66.48;93121.25;5013720;28;20470;-69
2020/12/11 09:24:14;;;;;;;29.60;17.45;;;;;;;9.21;67.28;93113.66;5013575;28;20053;-71
2020/12/11 09:26:40;;;;;;;30.00;18.25;;;;;;;9.35;66.92;93111.53;5012414;28;20032;-71
2020/12/11 09:29:25;;;;;;;26.13;15.98;;;;;;;9.51;66.20;93105.66;5013509;28;20030;-70
2020/12/11 09:31:53;;;;;;;25.98;17.05;;;;;;;9.61;64.81;93105.25;5012150;28;20401;-71
2020/12/11 09:34:19;;;;;;;29.55;18.73;;;;;;;9.70;64.48;93105.97;5012105;28;20516;-71
2020/12/11 09:36:44;;;;;;;31.98;15.73;;;;;;;9.79;63.68;93100.56;5012119;28;20061;-73
2020/12/11 09:39:11;;;;;;;24.15;13.88;;;;;;;9.84;63.77;93095.06;5011970;28;20482;-72
2020/12/11 09:41:44;;;;;;;26.75;14.60;;;;;;;9.91;63.16;93099.84;5013199;28;20046;-72
2020/12/11 09:54:43;;;;;;;29.92;18.05;;;;;;;9.91;63.51;93094.53;5013157;28;20041;-71
2020/12/11 09:57:09;;;;;;;28.25;17.27;;;;;;;9.95;63.42;93095.41;5011940;28;20512;-71
2020/12/11 09:59:43;;;;;;;36.38;17.42;;;;;;;9.96;62.66;93089.00;5011400;28;20452;-71
2020/12/11 10:04:40;;;;;;;29.35;17.90;;;;;;;10.09;62.87;93087.94;5012848;28;20030;-72
2020/12/11 10:07:05;;;;;;;30.63;18.42;;;;;;;10.13;62.07;93088.06;5013086;28;20021;-72
2020/12/11 10:09:31;;;;;;;36.17;20.75;;;;;;;10.12;62.10;93078.53;5012234;28;20029;-72
2020/12/11 10:11:59;;;;;;;27.27;16.75;;;;;;;10.18;61.20;93085.97;5012927;28;20406;-72
2020/12/11 10:16:53;;;;;;;27.80;16.55;;;;;;;10.23;61.08;93080.41;5012741;28;20042;-72
2020/12/11 10:19:23;;;;;;;24.35;15.20;;;;;;;10.28;61.11;93070.66;5012851;28;20025;-72
2020/12/11 10:21:49;;;;;;;26.23;16.33;;;;;;;10.30;60.55;93065.81;5012194;28;20108;-72
2020/12/11 10:24:16;;;;;;;23.83;15.20;;;;;;;10.32;61.21;93066.25;5012714;28;20450;-72
2020/12/11 10:26:41;;;;;;;23.65;15.80;;;;;;;10.31;61.40;93062.06;5011660;28;20408;-73
2020/12/11 10:29:07;;;;;;;26.70;15.88;;;;;;;10.34;60.85;93061.38;5011237;28;20026;-72
2020/12/11 10:31:33;;;;;;;28.23;16.30;;;;;;;10.36;61.00;93062.63;5012559;28;20030;-72
2020/12/11 10:33:59;;;;;;;27.90;17.15;;;;;;;10.37;61.20;93060.72;5012022;28;20037;-71
2020/12/11 10:36:29;;;;;;;44.67;27.65;;;;;;;10.41;61.05;93057.06;5012271;28;20114;-72
2020/12/11 10:38:54;;;;;;;26.92;17.55;;;;;;;10.44;60.79;93059.09;5011911;28;20105;-72
2020/12/11 10:41:23;;;;;;;30.90;19.95;;;;;;;10.49;60.76;93055.44;5011432;28;20046;-72
2020/12/11 10:43:49;;;;;;;30.83;16.27;;;;;;;10.54;60.29;93044.56;5011609;28;20068;-72
2020/12/11 10:46:15;;;;;;;30.40;17.83;;;;;;;10.59;60.07;93047.00;5011548;28;20035;-71
2020/12/11 10:48:41;;;;;;;32.33;18.60;;;;;;;10.62;60.09;93037.56;5011967;28;20030;-72
2020/12/11 10:51:10;;;;;;;27.27;18.73;;;;;;;10.68;60.16;93028.22;5009984;28;20040;-72
2020/12/11 10:53:35;;;;;;;24.77;16.02;;;;;;;10.72;60.33;93034.44;5011531;28;20037;-72
2020/12/11 10:56:04;;;;;;;30.15;17.17;;;;;;;10.82;59.38;93025.22;5011286;28;20033;-72
2020/12/11 10:58:30;;;;;;;29.13;16.50;;;;;;;10.87;58.98;93026.88;5011405;28;20029;-72
2020/12/11 11:00:55;;;;;;;29.67;18.95;;;;;;;10.90;58.65;93023.56;5010122;28;20076;-71
2020/12/11 11:03:20;;;;;;;25.40;17.40;;;;;;;10.88;58.57;93020.44;5011159;28;20038;-70
2020/12/11 11:05:46;;;;;;;33.20;15.63;;;;;;;10.89;58.30;93020.13;5010693;28;20034;-69
2020/12/11 11:08:11;;;;;;;29.08;16.75;;;;;;;10.96;58.56;93017.66;5011602;28;20444;-71
2020/12/11 11:10:43;;;;;;;31.17;15.70;;;;;;;10.99;58.27;93011.66;5011600;28;20034;-67
2020/12/11 11:13:50;;;;;;;26.30;15.02;;;;;;;10.98;58.55;93014.66;5011873;28;20413;-66
2020/12/11 11:16:02;;;;;;;32.88;14.75;;;;;;;10.98;58.36;93009.34;5006619;28;20392;-66
2020/12/11 11:18:44;;;;;;;29.50;15.52;;;;;;;10.99;58.60;93010.88;5011818;28;20088;-66
2020/12/11 11:24:20;;;;;;;26.25;16.98;;;;;;;10.98;58.81;93009.34;5010438;28;20040;-66
2020/12/11 11:29:30;;;;;;;27.75;15.70;;;;;;;10.85;57.95;93008.56;5011452;28;20049;-66
2020/12/11 11:31:55;;;;;;;27.30;17.40;;;;;;;10.80;58.97;93004.22;5010007;28;20029;-67
2020/12/11 11:34:21;;;;;;;36.17;18.67;;;;;;;10.80;59.65;93000.78;5011201;28;20203;-67
2020/12/11 11:36:50;;;;;;;33.13;18.35;;;;;;;10.80;59.19;92987.47;5008652;28;20112;-67
2020/12/11 11:39:16;;;;;;;31.98;18.52;;;;;;;10.79;59.55;92985.94;5008956;28;20045;-66
2020/12/11 11:41:45;;;;;;;29.98;19.33;;;;;;;10.78;59.56;92981.69;5009808;28;20042;-67
2020/12/11 11:46:49;;;;;;;29.92;19.90;;;;;;;10.79;59.37;92981.38;5010950;28;20405;-66
2020/12/11 11:49:19;;;;;;;28.23;17.90;;;;;;;10.75;60.05;92985.03;5009834;28;20024;-66
2020/12/11 11:54:28;;;;;;;30.30;17.40;;;;;;;10.63;60.27;92985.81;5011276;28;20040;-67
2020/12/11 11:56:57;;;;;;;27.45;17.20;;;;;;;10.62;60.77;92982.38;5009439;28;20025;-67
2020/12/11 11:59:23;;;;;;;28.75;15.65;;;;;;;10.60;60.40;92978.47;5010865;28;20038;-66
2020/12/11 12:01:52;;;;;;;28.95;17.30;;;;;;;10.57;60.38;92977.28;5010466;28;20112;-66